Time;durP1;ratioP1;P1;durP2;ratioP2;P2;SDS_P1;SDS_P2;PMS_P1;PMS_P2;Temp;Humidity;BMP_temperature;BMP_pressure;BME280_temperature;BME280_humidity;BME280_pressure;Samples;Min_cycle;Max_cycle;Signal;HPM_P1;HPM_P2
2023/08/06 00:00:09;;;;;;;2.63;2.00;;;;;;;17.49;100.00;97427.16;4153684;28;20623;-74
2023/08/06 00:02:13;;;;;;;3.07;2.30;;;;;;;17.50;100.00;97431.44;4154527;28;20643;-74
2023/08/06 00:04:16;;;;;;;3.07;2.40;;;;;;;17.51;100.00;97427.81;4155120;28;20764;-74
2023/08/06 00:06:21;;;;;;;2.40;2.00;;;;;;;17.53;100.00;97426.66;4152920;28;20743;-74
2023/08/06 00:08:24;;;;;;;3.10;2.10;;;;;;;17.54;100.00;97420.38;4150818;28;20654;-76
2023/08/06 00:10:28;;;;;;;2.27;2.07;;;;;;;17.53;100.00;97421.38;4154904;28;20685;-75
2023/08/06 00:12:30;;;;;;;2.87;2.10;;;;;;;17.53;100.00;97420.56;4156229;28;21264;-75
2023/08/06 00:14:34;;;;;;;3.40;2.77;;;;;;;17.52;100.00;97425.00;4151603;28;20649;-77
2023/08/06 00:16:37;;;;;;;2.50;2.03;;;;;;;17.53;100.00;97426.66;4144024;28;20743;-75
2023/08/06 00:18:41;;;;;;;2.40;2.00;;;;;;;17.54;100.00;97423.03;4128767;28;20665;-74
2023/08/06 00:20:45;;;;;;;4.00;2.17;;;;;;;17.53;100.00;97418.75;4151133;28;20673;-74
2023/08/06 00:22:51;;;;;;;2.67;2.03;;;;;;;17.53;100.00;97417.94;4117626;28;20654;-75
2023/08/06 00:24:57;;;;;;;3.00;2.23;;;;;;;17.54;100.00;97417.75;4141549;28;20622;-74
2023/08/06 00:27:03;;;;;;;2.90;2.00;;;;;;;17.53;100.00;97421.38;4151568;28;20633;-75
2023/08/06 00:29:07;;;;;;;2.60;2.20;;;;;;;17.53;100.00;97415.31;4123282;28;20658;-74
2023/08/06 00:31:10;;;;;;;2.20;1.90;;;;;;;17.52;100.00;97413.66;4141333;28;21232;-75
2023/08/06 00:33:14;;;;;;;3.13;2.10;;;;;;;17.50;100.00;97411.16;4146010;28;21016;-75
2023/08/06 00:35:17;;;;;;;2.47;2.07;;;;;;;17.48;100.00;97412.31;4140991;28;21172;-75
2023/08/06 00:37:21;;;;;;;2.73;2.10;;;;;;;17.47;100.00;97414.13;4117458;28;20640;-74
2023/08/06 00:39:29;;;;;;;3.30;2.00;;;;;;;17.47;100.00;97403.59;4132049;28;20695;-75
2023/08/06 00:41:32;;;;;;;2.63;1.93;;;;;;;17.46;100.00;97403.75;4156131;28;20669;-75
2023/08/06 00:43:38;;;;;;;2.47;1.90;;;;;;;17.46;100.00;97406.38;4148899;28;20726;-74
2023/08/06 00:45:42;;;;;;;3.00;2.13;;;;;;;17.46;100.00;97401.94;4144121;28;21374;-74
2023/08/06 00:47:47;;;;;;;2.53;2.00;;;;;;;17.46;100.00;97398.47;4130470;28;20638;-75
2023/08/06 00:49:58;;;;;;;2.40;1.73;;;;;;;17.45;100.00;97396.81;4153297;28;20670;-76
2023/08/06 00:52:10;;;;;;;2.50;2.10;;;;;;;17.45;100.00;97396.00;4145967;28;20626;-75
2023/08/06 00:54:17;;;;;;;3.00;2.20;;;;;;;17.45;100.00;97398.63;4134867;28;20645;-75
2023/08/06 00:56:25;;;;;;;3.20;2.40;;;;;;;17.46;100.00;97392.38;4153865;28;20660;-75
2023/08/06 00:58:28;;;;;;;2.87;2.20;;;;;;;17.45;100.00;97406.53;4136494;28;20999;-74
2023/08/06 01:00:32;;;;;;;2.87;1.90;;;;;;;17.45;100.00;97396.00;4154338;28;20636;-76
2023/08/06 01:02:35;;;;;;;3.13;2.83;;;;;;;17.43;100.00;97392.72;4142246;28;20670;-75
2023/08/06 01:04:39;;;;;;;3.77;2.50;;;;;;;17.42;100.00;97391.06;4135253;28;20650;-74
2023/08/06 01:07:00;;;;;;;3.50;2.50;;;;;;;17.41;100.00;97389.41;4155540;28;20742;-75
2023/08/06 01:09:12;;;;;;;3.10;2.50;;;;;;;17.40;100.00;97387.78;4139566;28;20635;-75
2023/08/06 01:11:34;;;;;;;2.90;2.43;;;;;;;17.40;100.00;97382.50;4159254;28;21154;-75
2023/08/06 01:13:43;;;;;;;3.10;2.50;;;;;;;17.37;100.00;97381.00;4140552;28;20727;-75
2023/08/06 01:15:51;;;;;;;2.90;2.40;;;;;;;17.38;100.00;97379.16;4143239;28;20621;-76
2023/08/06 01:17:54;;;;;;;2.80;2.37;;;;;;;17.39;100.00;97380.84;4154230;28;20639;-75
2023/08/06 01:19:59;;;;;;;3.20;2.70;;;;;;;17.38;100.00;97382.66;4136497;28;20638;-75
2023/08/06 01:22:05;;;;;;;3.00;2.30;;;;;;;17.39;100.00;97376.38;4137255;28;20764;-75
2023/08/06 01:24:10;;;;;;;3.60;2.50;;;;;;;17.41;100.00;97384.13;4144197;28;20628;-76
2023/08/06 01:26:20;;;;;;;3.10;2.50;;;;;;;17.42;100.00;97380.50;4125996;28;20637;-75
2023/08/06 01:28:31;;;;;;;2.80;2.47;;;;;;;17.42;100.00;97369.97;4125792;28;20647;-75
2023/08/06 01:30:40;;;;;;;4.03;2.70;;;;;;;17.43;100.00;97371.63;4126470;28;20759;-75
2023/08/06 01:32:46;;;;;;;3.40;2.63;;;;;;;17.41;100.00;97374.41;4153595;28;20629;-74
2023/08/06 01:34:52;;;;;;;4.43;2.90;;;;;;;17.39;100.00;97371.09;4144902;28;21098;-75
2023/08/06 01:37:00;;;;;;;2.87;2.53;;;;;;;17.39;100.00;97363.19;4142319;28;20643;-83
2023/08/06 01:39:08;;;;;;;3.67;2.00;;;;;;;17.39;100.00;97359.75;4143715;28;20642;-80
2023/08/06 01:41:12;;;;;;;3.50;2.40;;;;;;;17.36;100.00;97360.06;4158875;28;20634;-82
2023/08/06 01:43:26;;;;;;;3.90;2.53;;;;;;;17.31;100.00;97354.47;4123981;28;20649;-84
2023/08/06 01:45:31;;;;;;;2.87;2.47;;;;;;;17.26;100.00;97348.84;4140433;28;21038;-83
2023/08/06 01:47:38;;;;;;;2.53;2.00;;;;;;;17.21;100.00;97345.88;4154467;28;20679;-83
2023/08/06 01:49:49;;;;;;;4.10;2.50;;;;;;;17.17;100.00;97336.59;4124529;28;20670;-83
2023/08/06 01:51:54;;;;;;;2.97;2.30;;;;;;;17.11;100.00;97338.09;4141291;28;20641;-84
2023/08/06 01:54:03;;;;;;;3.30;2.77;;;;;;;17.08;100.00;97341.06;4146392;28;21211;-83
2023/08/06 01:56:20;;;;;;;4.33;2.90;;;;;;;17.08;100.00;97340.25;4141387;28;20993;-83
2023/08/06 01:58:24;;;;;;;2.90;2.33;;;;;;;17.09;100.00;97341.88;4140599;28;20653;-84
2023/08/06 02:00:28;;;;;;;5.30;2.97;;;;;;;17.09;100.00;97344.50;4146381;28;20626;-82
2023/08/06 02:02:33;;;;;;;3.90;2.63;;;;;;;17.11;100.00;97347.84;4137471;28;20716;-83
2023/08/06 02:04:37;;;;;;;3.10;2.50;;;;;;;17.11;100.00;97340.75;4139012;28;20783;-82
2023/08/06 02:06:41;;;;;;;3.13;2.67;;;;;;;17.14;100.00;97342.25;4138880;28;20639;-83
2023/08/06 02:08:45;;;;;;;3.37;2.80;;;;;;;17.15;100.00;97343.88;4146154;28;20640;-83
2023/08/06 02:10:51;;;;;;;3.00;2.50;;;;;;;17.15;100.00;97341.22;4155043;28;20671;-83
2023/08/06 02:12:55;;;;;;;3.70;2.90;;;;;;;17.12;100.00;97345.03;4151412;28;20666;-84
2023/08/06 02:14:58;;;;;;;4.60;2.90;;;;;;;17.11;100.00;97342.56;4127184;28;20832;-83
2023/08/06 02:17:05;;;;;;;7.87;3.27;;;;;;;17.10;100.00;97333.81;4157441;28;20638;-83
2023/08/06 02:19:27;;;;;;;3.90;2.90;;;;;;;17.08;100.00;97330.53;4140463;28;20645;-84
2023/08/06 02:21:32;;;;;;;4.03;3.20;;;;;;;17.08;100.00;97329.72;4145563;28;21035;-82
2023/08/06 02:23:36;;;;;;;3.83;3.33;;;;;;;17.07;100.00;97339.41;4135494;28;20628;-83
2023/08/06 02:25:45;;;;;;;4.27;3.63;;;;;;;17.07;100.00;97335.97;4136489;28;20673;-83
2023/08/06 02:27:52;;;;;;;8.63;3.10;;;;;;;17.04;100.00;97329.19;4136892;28;20646;-82
2023/08/06 02:30:02;;;;;;;4.10;3.00;;;;;;;17.04;100.00;97323.91;4137799;28;20667;-82
2023/08/06 02:32:10;;;;;;;3.97;3.13;;;;;;;17.04;100.00;97313.38;4154112;28;20637;-83
2023/08/06 02:34:16;;;;;;;3.93;3.47;;;;;;;17.05;100.00;97311.59;4154441;28;20638;-83
2023/08/06 02:36:29;;;;;;;4.57;3.50;;;;;;;17.02;100.00;97307.47;4142243;28;20631;-83
2023/08/06 02:38:37;;;;;;;3.50;2.87;;;;;;;17.02;100.00;97314.56;4119542;28;20677;-83
2023/08/06 02:40:44;;;;;;;4.50;3.23;;;;;;;17.01;100.00;97308.44;4134342;28;20708;-82
2023/08/06 02:42:51;;;;;;;4.33;3.83;;;;;;;17.03;100.00;97308.28;4151478;28;20678;-83
2023/08/06 02:45:01;;;;;;;4.10;3.63;;;;;;;17.05;100.00;97306.31;4135630;28;20633;-82
2023/08/06 02:47:06;;;;;;;5.27;4.10;;;;;;;17.08;100.00;97298.91;4140662;28;21257;-76
2023/08/06 02:49:23;;;;;;;4.70;3.80;;;;;;;17.11;100.00;97303.03;4137067;28;20635;-75
2023/08/06 02:51:28;;;;;;;5.00;3.43;;;;;;;17.11;100.00;97303.03;4142232;28;20651;-74
2023/08/06 02:53:33;;;;;;;4.80;4.20;;;;;;;17.13;100.00;97301.03;4149366;28;20647;-75
2023/08/06 02:55:47;;;;;;;4.70;4.20;;;;;;;17.14;100.00;97300.06;4125018;28;21448;-74
2023/08/06 02:57:58;;;;;;;4.30;3.53;;;;;;;17.14;100.00;97302.72;4135200;28;20639;-75
2023/08/06 03:00:04;;;;;;;4.57;3.70;;;;;;;17.13;100.00;97301.03;4135005;28;20694;-75
2023/08/06 03:02:06;;;;;;;4.27;3.87;;;;;;;17.15;100.00;97299.06;4145245;28;20635;-76
2023/08/06 03:04:25;;;;;;;6.17;4.20;;;;;;;17.20;100.00;97299.38;4145574;28;21265;-75
2023/08/06 03:06:28;;;;;;;4.77;3.67;;;;;;;17.21;100.00;97293.16;4141781;28;21232;-74
2023/08/06 03:08:33;;;;;;;5.43;4.20;;;;;;;17.23;100.00;97292.03;4137963;28;21049;-75
2023/08/06 03:10:36;;;;;;;5.20;3.47;;;;;;;17.25;100.00;97289.22;4126543;28;20663;-75
2023/08/06 03:12:41;;;;;;;4.37;3.50;;;;;;;17.24;100.00;97287.56;4145532;28;20980;-76
2023/08/06 03:14:46;;;;;;;6.33;3.60;;;;;;;17.25;100.00;97283.94;4136142;28;21274;-75
2023/08/06 03:16:51;;;;;;;4.70;3.70;;;;;;;17.24;100.00;97287.56;4127153;28;21167;-75
2023/08/06 03:18:55;;;;;;;4.77;3.57;;;;;;;17.25;100.00;97276.03;4139173;28;21055;-74
2023/08/06 03:20:58;;;;;;;4.57;3.80;;;;;;;17.26;100.00;97286.44;4144527;28;20623;-75
2023/08/06 03:23:10;;;;;;;3.90;3.50;;;;;;;17.28;100.00;97278.34;4133508;28;20682;-75
2023/08/06 03:25:15;;;;;;;4.43;3.80;;;;;;;17.29;100.00;97280.81;4125749;28;21012;-74
2023/08/06 03:27:22;;;;;;;4.73;4.23;;;;;;;17.29;100.00;97274.69;4145426;28;20633;-75
2023/08/06 03:29:32;;;;;;;4.30;3.57;;;;;;;17.29;100.00;97269.44;4144768;28;20673;-76
2023/08/06 03:31:41;;;;;;;4.93;3.70;;;;;;;17.30;100.00;97271.91;4140793;28;20695;-75
2023/08/06 03:33:49;;;;;;;4.93;3.90;;;;;;;17.30;100.00;97271.09;4142943;28;21079;-74
2023/08/06 03:36:07;;;;;;;4.10;3.10;;;;;;;17.27;100.00;97271.41;4137362;28;21276;-74
2023/08/06 03:38:12;;;;;;;4.27;3.43;;;;;;;17.28;100.00;97273.06;4136552;28;20635;-76
2023/08/06 03:40:19;;;;;;;4.47;3.10;;;;;;;17.27;100.00;97276.69;4120304;28;20662;-75
2023/08/06 03:42:42;;;;;;;3.47;3.00;;;;;;;17.26;100.00;97269.75;4135128;28;20655;-77
2023/08/06 03:44:53;;;;;;;4.70;2.93;;;;;;;17.28;100.00;97270.44;4147033;28;21070;-75
2023/08/06 03:47:05;;;;;;;3.90;3.13;;;;;;;17.29;100.00;97269.44;4147550;28;20667;-74
2023/08/06 03:49:12;;;;;;;4.60;3.10;;;;;;;17.31;100.00;97272.75;4144331;28;20639;-76
2023/08/06 03:51:21;;;;;;;3.50;2.93;;;;;;;17.31;100.00;97278.03;4147676;28;21034;-74
2023/08/06 03:53:26;;;;;;;4.57;2.80;;;;;;;17.30;100.00;97276.38;4130494;28;20680;-74
2023/08/06 03:55:34;;;;;;;2.80;2.30;;;;;;;17.29;100.00;97272.91;4128454;28;20624;-73
2023/08/06 03:57:43;;;;;;;3.73;2.13;;;;;;;17.28;100.00;97273.91;4145276;28;20653;-72
2023/08/06 03:59:46;;;;;;;3.60;2.70;;;;;;;17.29;100.00;97269.44;4138759;28;20654;-72
2023/08/06 04:02:17;;;;;;;4.90;2.80;;;;;;;17.28;100.00;97265.19;4144587;28;20633;-76
2023/08/06 04:04:22;;;;;;;3.53;2.50;;;;;;;17.28;99.11;97262.53;4139179;28;20660;-75
2023/08/06 04:06:45;;;;;;;3.73;2.20;;;;;;;17.28;98.54;97265.19;4136940;28;21183;-76
2023/08/06 04:08:50;;;;;;;4.87;2.50;;;;;;;17.28;98.74;97258.06;4137272;28;21007;-76
2023/08/06 04:11:13;;;;;;;2.93;2.33;;;;;;;17.27;99.23;97260.88;4131503;28;20652;-75
2023/08/06 04:13:37;;;;;;;2.90;2.40;;;;;;;17.26;99.21;97265.34;4127335;28;21546;-75
2023/08/06 04:16:02;;;;;;;3.10;2.37;;;;;;;17.25;99.57;97260.22;4142615;28;20646;-75
2023/08/06 04:18:26;;;;;;;3.87;2.67;;;;;;;17.23;99.64;97263.03;4157774;28;20645;-75
2023/08/06 04:20:32;;;;;;;2.67;1.83;;;;;;;17.24;97.86;97261.22;4134731;28;20633;-76
2023/08/06 04:22:35;;;;;;;2.77;2.10;;;;;;;17.20;98.80;97262.47;4141031;28;20654;-74
2023/08/06 04:24:40;;;;;;;3.30;2.30;;;;;;;17.19;98.12;97271.41;4144213;28;20624;-74
2023/08/06 04:26:43;;;;;;;2.73;1.90;;;;;;;17.18;99.09;97264.47;4137564;28;20628;-74
2023/08/06 04:28:46;;;;;;;4.40;2.77;;;;;;;17.19;99.05;97268.75;4127080;28;20621;-74
2023/08/06 04:30:50;;;;;;;4.30;2.70;;;;;;;17.18;99.17;97261.84;4140340;28;20674;-74
2023/08/06 04:32:53;;;;;;;2.90;2.17;;;;;;;17.18;99.42;97267.09;4135004;28;21302;-74
2023/08/06 04:34:57;;;;;;;3.00;2.00;;;;;;;17.19;98.47;97268.75;4118221;28;21202;-75
2023/08/06 04:37:03;;;;;;;3.10;2.33;;;;;;;17.19;98.71;97266.13;4127727;28;20626;-75
2023/08/06 04:39:07;;;;;;;3.23;2.10;;;;;;;17.22;99.72;97273.75;4151501;28;20635;-75
2023/08/06 04:41:16;;;;;;;2.97;1.97;;;;;;;17.20;99.04;97270.38;4138512;28;20628;-74
2023/08/06 04:43:27;;;;;;;2.77;2.07;;;;;;;17.19;98.68;97268.75;4137500;28;21210;-74
2023/08/06 04:45:30;;;;;;;2.70;1.90;;;;;;;17.18;98.27;97273.19;4126881;28;20633;-74
2023/08/06 04:47:36;;;;;;;2.73;2.20;;;;;;;17.15;98.32;97273.53;4140467;28;20655;-76
2023/08/06 04:49:42;;;;;;;4.00;2.30;;;;;;;17.13;98.45;97279.97;4141400;28;20646;-74
2023/08/06 04:51:46;;;;;;;3.80;2.27;;;;;;;17.11;98.63;97274.03;4148181;28;21218;-77
2023/08/06 04:53:53;;;;;;;3.50;2.20;;;;;;;17.07;99.85;97275.34;4150542;28;20646;-75
2023/08/06 04:55:58;;;;;;;3.67;2.47;;;;;;;17.06;98.95;97274.53;4140722;28;20625;-74
2023/08/06 04:58:06;;;;;;;3.40;2.00;;;;;;;17.08;100.00;97280.47;4153463;28;20719;-75
2023/08/06 05:00:15;;;;;;;3.57;1.90;;;;;;;17.06;100.00;97274.53;4156605;28;21182;-74
2023/08/06 05:02:18;;;;;;;5.13;2.10;;;;;;;16.95;100.00;97274.03;4131205;28;20634;-74
2023/08/06 05:04:31;;;;;;;3.07;2.00;;;;;;;16.85;100.00;97275.97;4144424;28;20663;-76
2023/08/06 05:06:38;;;;;;;2.90;2.10;;;;;;;16.83;100.00;97269.25;4151979;28;20732;-75
2023/08/06 05:08:46;;;;;;;3.03;2.30;;;;;;;16.85;100.00;97275.16;4155021;28;20653;-74
2023/08/06 05:10:51;;;;;;;3.20;2.40;;;;;;;16.88;100.00;97280.09;4161897;28;21232;-75
2023/08/06 05:13:14;;;;;;;3.20;1.60;;;;;;;16.81;100.00;97274.69;4129296;28;20661;-74
2023/08/06 05:15:16;;;;;;;2.90;1.97;;;;;;;16.69;100.00;97278.59;4155729;28;21259;-74
2023/08/06 05:17:39;;;;;;;3.03;2.10;;;;;;;16.68;100.00;97278.75;4153294;28;20618;-76
2023/08/06 05:19:44;;;;;;;3.07;2.03;;;;;;;16.72;100.00;97288.81;4151260;28;20678;-76
2023/08/06 05:21:48;;;;;;;3.33;2.00;;;;;;;16.78;100.00;97293.44;4152960;28;20644;-75
2023/08/06 05:23:52;;;;;;;4.90;2.33;;;;;;;16.84;100.00;97290.16;4157040;28;20637;-75
2023/08/06 05:25:55;;;;;;;3.57;2.37;;;;;;;16.88;100.00;97294.09;4147919;28;20623;-75
2023/08/06 05:27:59;;;;;;;4.13;2.20;;;;;;;16.94;100.00;97301.34;4153838;28;21083;-75
2023/08/06 05:30:03;;;;;;;3.20;2.30;;;;;;;16.94;100.00;97298.72;4158140;28;20614;-74
2023/08/06 05:32:07;;;;;;;3.00;2.20;;;;;;;16.96;100.00;97304.66;4158704;28;21340;-75
2023/08/06 05:34:11;;;;;;;2.73;1.80;;;;;;;16.95;100.00;97300.38;4160968;28;20666;-75
2023/08/06 05:36:14;;;;;;;3.03;2.10;;;;;;;16.99;100.00;97299.06;4120975;28;20645;-74
2023/08/06 05:38:17;;;;;;;3.10;2.03;;;;;;;17.02;100.00;97304.00;4156270;28;20694;-74
2023/08/06 05:40:21;;;;;;;5.70;1.90;;;;;;;17.05;100.00;97301.06;4145352;28;21061;-76
2023/08/06 05:42:27;;;;;;;3.60;2.23;;;;;;;17.05;100.00;97304.50;4125341;28;20619;-75
2023/08/06 05:44:35;;;;;;;2.80;1.90;;;;;;;17.07;100.00;97301.69;4147387;28;20634;-75
2023/08/06 05:46:42;;;;;;;3.53;2.00;;;;;;;17.11;100.00;97290.66;4160111;28;20654;-74
2023/08/06 05:48:47;;;;;;;3.73;2.13;;;;;;;17.20;100.00;97299.38;4156853;28;20633;-76
2023/08/06 05:50:52;;;;;;;3.03;2.07;;;;;;;17.25;100.00;97300.59;4143729;28;20667;-75
2023/08/06 05:53:01;;;;;;;2.77;1.87;;;;;;;17.29;100.00;97298.44;4145449;28;20662;-75
2023/08/06 05:55:10;;;;;;;3.10;2.40;;;;;;;17.36;100.00;97300.25;4156669;28;20639;-76
2023/08/06 05:57:13;;;;;;;3.37;2.00;;;;;;;17.46;100.00;97311.47;4123544;28;20756;-75
2023/08/06 05:59:18;;;;;;;2.73;2.30;;;;;;;17.54;100.00;97309.63;4154616;28;20737;-76
2023/08/06 06:01:23;;;;;;;4.00;2.27;;;;;;;17.58;100.00;97312.75;4158616;28;20614;-75
2023/08/06 06:03:27;;;;;;;3.60;1.80;;;;;;;17.59;100.00;97315.25;4157440;28;20739;-75
2023/08/06 06:05:33;;;;;;;5.60;2.00;;;;;;;17.60;100.00;97311.59;4143975;28;21216;-74
2023/08/06 06:07:40;;;;;;;4.10;2.17;;;;;;;17.57;100.00;97311.09;4154965;28;20675;-74
2023/08/06 06:09:50;;;;;;;4.03;2.50;;;;;;;17.51;100.00;97317.91;4137245;28;20737;-77
2023/08/06 06:11:53;;;;;;;2.90;2.20;;;;;;;17.39;100.00;97313.09;4159751;28;21218;-75
2023/08/06 06:13:58;;;;;;;4.70;2.33;;;;;;;17.35;100.00;97317.06;4153188;28;20629;-74
2023/08/06 06:16:07;;;;;;;2.73;2.30;;;;;;;17.35;100.00;97308.31;4157039;28;21264;-76
2023/08/06 06:18:23;;;;;;;3.37;2.30;;;;;;;17.32;100.00;97311.28;4136816;28;20675;-83
2023/08/06 06:20:27;;;;;;;2.57;1.93;;;;;;;17.30;100.00;97306.19;4157529;28;21010;-83
2023/08/06 06:22:40;;;;;;;3.47;2.47;;;;;;;17.34;100.00;97304.06;4138907;28;20629;-81
2023/08/06 06:24:46;;;;;;;3.40;2.20;;;;;;;17.39;100.00;97310.47;4154341;28;20699;-81
2023/08/06 06:26:49;;;;;;;4.20;2.43;;;;;;;17.46;100.00;97309.63;4154407;28;20655;-84
2023/08/06 06:28:53;;;;;;;2.77;2.30;;;;;;;17.53;100.00;97304.53;4137766;28;20631;-84
2023/08/06 06:31:01;;;;;;;4.93;2.13;;;;;;;17.56;100.00;97309.44;4155088;28;20716;-83
2023/08/06 06:33:06;;;;;;;3.43;2.50;;;;;;;17.56;100.00;97307.66;4121175;28;20719;-82
2023/08/06 06:35:13;;;;;;;3.63;2.60;;;;;;;17.54;100.00;97306.16;4147071;28;20634;-82
2023/08/06 06:37:16;;;;;;;3.27;2.20;;;;;;;17.48;100.00;97306.84;4145751;28;21252;-82
2023/08/06 06:39:19;;;;;;;2.80;2.00;;;;;;;17.45;100.00;97309.81;4123881;28;20746;-83
2023/08/06 06:41:23;;;;;;;3.20;1.90;;;;;;;17.43;100.00;97311.78;4139824;28;20955;-82
2023/08/06 06:43:28;;;;;;;3.20;2.10;;;;;;;17.45;100.00;97314.25;4141992;28;20692;-83
2023/08/06 06:45:31;;;;;;;3.37;2.03;;;;;;;17.36;100.00;97317.88;4138815;28;20654;-83
2023/08/06 06:47:34;;;;;;;2.87;1.90;;;;;;;17.34;100.00;97325.97;4141125;28;20609;-82
2023/08/06 06:49:40;;;;;;;4.80;1.80;;;;;;;17.35;100.00;97324.97;4152485;28;20697;-82
2023/08/06 06:51:44;;;;;;;2.10;1.57;;;;;;;17.35;100.00;97314.44;4139426;28;20747;-84
2023/08/06 06:53:49;;;;;;;3.73;1.33;;;;;;;17.31;100.00;97321.00;4152429;28;20654;-83
2023/08/06 06:55:54;;;;;;;2.77;1.77;;;;;;;17.31;100.00;97325.47;4153448;28;20639;-84
2023/08/06 06:57:59;;;;;;;3.30;2.00;;;;;;;17.26;100.00;97323.34;4152672;28;20651;-83
2023/08/06 07:00:07;;;;;;;2.20;1.57;;;;;;;17.21;100.00;97316.88;4137101;28;20624;-83
2023/08/06 07:02:13;;;;;;;2.67;1.60;;;;;;;17.11;100.00;97316.22;4155500;28;20732;-84
2023/08/06 07:04:20;;;;;;;2.10;1.40;;;;;;;17.01;100.00;97318.16;4136543;28;20691;-83
2023/08/06 07:06:29;;;;;;;3.00;1.20;;;;;;;16.92;100.00;97323.59;4151090;28;20633;-81
2023/08/06 07:08:36;;;;;;;2.23;1.20;;;;;;;16.81;100.00;97321.25;4157011;28;20655;-83
2023/08/06 07:10:45;;;;;;;2.20;1.27;;;;;;;16.75;100.00;97325.38;4135377;28;20673;-84
2023/08/06 07:12:49;;;;;;;1.90;1.10;;;;;;;16.76;100.00;97328.81;4153242;28;20669;-83
2023/08/06 07:15:01;;;;;;;2.00;1.10;;;;;;;16.72;100.00;97323.06;4141909;28;21070;-83
2023/08/06 07:17:24;;;;;;;1.30;0.70;;;;;;;16.77;100.00;97326.03;4140881;28;20753;-83
2023/08/06 07:19:32;;;;;;;1.90;1.00;;;;;;;16.69;100.00;97328.63;4134919;28;20654;-82
2023/08/06 07:21:48;;;;;;;1.43;0.80;;;;;;;16.65;100.00;97322.03;4146905;28;20649;-84
2023/08/06 07:23:59;;;;;;;1.90;0.90;;;;;;;16.58;100.00;97326.31;4151495;28;20709;-83
2023/08/06 07:26:06;;;;;;;1.80;0.80;;;;;;;16.53;100.00;97317.22;4122751;28;20738;-83
2023/08/06 07:28:17;;;;;;;2.33;0.90;;;;;;;16.64;100.00;97323.03;4157619;28;20717;-83
2023/08/06 07:30:21;;;;;;;1.60;0.60;;;;;;;16.65;100.00;97326.50;4144804;28;20632;-82
2023/08/06 07:32:28;;;;;;;1.93;0.60;;;;;;;16.66;100.00;97333.41;4153111;28;20719;-82
2023/08/06 07:34:35;;;;;;;2.10;0.80;;;;;;;16.69;100.00;97323.38;4153098;28;20704;-83
2023/08/06 07:36:39;;;;;;;1.60;0.80;;;;;;;16.73;100.00;97331.78;4160241;28;21074;-79
2023/08/06 07:38:44;;;;;;;1.90;0.80;;;;;;;16.78;100.00;97330.31;4160898;28;20665;-82
2023/08/06 07:40:47;;;;;;;1.80;0.80;;;;;;;16.80;100.00;97322.25;4158457;28;20616;-84
2023/08/06 07:42:50;;;;;;;1.20;0.60;;;;;;;16.79;100.00;97336.41;4158517;28;20640;-84
2023/08/06 07:44:55;;;;;;;1.60;0.80;;;;;;;16.85;100.00;97326.03;4142046;28;20618;-82
2023/08/06 07:46:59;;;;;;;2.17;0.67;;;;;;;16.85;100.00;97333.94;4165222;28;20627;-83
2023/08/06 07:49:03;;;;;;;1.37;0.73;;;;;;;16.82;100.00;97339.53;4160408;28;20626;-83
2023/08/06 07:51:06;;;;;;;1.50;0.60;;;;;;;16.78;100.00;97335.56;4142928;28;21056;-83
2023/08/06 07:53:13;;;;;;;1.33;0.60;;;;;;;16.81;100.00;97330.00;4157591;28;20626;-83
2023/08/06 07:55:18;;;;;;;1.67;0.60;;;;;;;16.75;100.00;97325.38;4159083;28;21319;-82
2023/08/06 07:57:23;;;;;;;1.87;0.63;;;;;;;16.77;100.00;97323.38;4164728;28;20631;-82
2023/08/06 07:59:35;;;;;;;1.80;0.70;;;;;;;16.85;100.00;97317.31;4144933;28;20629;-82
2023/08/06 08:01:41;;;;;;;2.17;0.60;;;;;;;16.85;100.00;97326.03;4163665;28;21460;-83
2023/08/06 08:03:46;;;;;;;1.50;0.60;;;;;;;16.86;100.00;97321.59;4159146;28;21005;-84
2023/08/06 08:05:57;;;;;;;1.10;0.40;;;;;;;16.86;100.00;97327.69;4155892;28;20649;-83
2023/08/06 08:08:02;;;;;;;1.33;0.83;;;;;;;16.89;100.00;97330.00;4156669;28;21069;-83
2023/08/06 08:10:12;;;;;;;1.43;0.63;;;;;;;16.81;100.00;97327.34;4144278;28;20629;-83
2023/08/06 08:12:19;;;;;;;1.87;0.70;;;;;;;16.78;100.00;97321.56;4159359;28;20671;-83
2023/08/06 08:14:26;;;;;;;1.27;0.60;;;;;;;16.64;100.00;97320.41;4159096;28;20711;-84
2023/08/06 08:16:33;;;;;;;1.40;0.63;;;;;;;16.49;100.00;97330.88;4151244;28;20668;-83
2023/08/06 08:18:40;;;;;;;1.77;0.90;;;;;;;16.44;100.00;97322.63;4155955;28;20999;-83
2023/08/06 08:20:48;;;;;;;1.30;0.60;;;;;;;16.38;100.00;97329.34;4144247;28;20630;-83
2023/08/06 08:22:55;;;;;;;1.13;0.60;;;;;;;16.29;100.00;97326.84;4154907;28;20634;-83
2023/08/06 08:24:58;;;;;;;1.27;0.50;;;;;;;16.28;100.00;97317.31;4144542;28;20658;-84
2023/08/06 08:27:23;;;;;;;1.20;0.60;;;;;;;16.22;100.00;97331.09;4144678;28;20620;-83
2023/08/06 08:29:46;;;;;;;1.10;0.50;;;;;;;16.20;100.00;97327.75;4144463;28;20624;-83
2023/08/06 08:31:50;;;;;;;1.30;0.60;;;;;;;16.14;100.00;97331.03;4154211;28;20645;-84
2023/08/06 08:34:04;;;;;;;1.40;0.60;;;;;;;16.14;100.00;97331.03;4155062;28;20660;-83
2023/08/06 08:36:09;;;;;;;1.73;0.70;;;;;;;16.12;100.00;97333.00;4141116;28;21001;-83
2023/08/06 08:38:20;;;;;;;1.20;0.60;;;;;;;16.20;100.00;97330.41;4127105;28;20676;-83
2023/08/06 08:40:28;;;;;;;1.50;0.70;;;;;;;16.27;100.00;97326.19;4155797;28;20629;-83
2023/08/06 08:42:39;;;;;;;1.87;0.60;;;;;;;16.35;100.00;97326.22;4141355;28;20639;-84
2023/08/06 08:44:43;;;;;;;1.53;1.07;;;;;;;16.42;100.00;97332.47;4159003;28;20645;-83
2023/08/06 08:46:49;;;;;;;1.40;0.40;;;;;;;16.52;100.00;97337.47;4159194;28;20652;-83
2023/08/06 08:48:52;;;;;;;1.40;0.70;;;;;;;16.66;100.00;97338.69;4147110;28;20637;-81
2023/08/06 08:50:58;;;;;;;2.33;0.70;;;;;;;16.84;100.00;97328.81;4139370;28;21240;-84
2023/08/06 08:53:02;;;;;;;1.20;0.50;;;;;;;16.91;100.00;97328.00;4159063;28;20678;-82
2023/08/06 08:55:08;;;;;;;1.30;0.50;;;;;;;16.97;100.00;97322.09;4160060;28;20656;-82
2023/08/06 08:57:13;;;;;;;1.10;0.40;;;;;;;16.99;100.00;97331.50;4157984;28;21202;-83
2023/08/06 08:59:19;;;;;;;1.03;0.40;;;;;;;17.01;100.00;97326.88;4155799;28;20672;-81
2023/08/06 09:01:23;;;;;;;1.27;0.50;;;;;;;17.05;100.00;97317.69;4157061;28;20643;-82
2023/08/06 09:03:30;;;;;;;1.00;0.40;;;;;;;17.06;100.00;97326.41;4155891;28;20665;-83
2023/08/06 09:05:36;;;;;;;1.17;0.50;;;;;;;17.06;100.00;97321.97;4157908;28;20648;-83
2023/08/06 09:07:44;;;;;;;1.50;0.60;;;;;;;17.11;100.00;97316.22;4141585;28;20644;-83
2023/08/06 09:09:51;;;;;;;1.80;0.63;;;;;;;17.13;100.00;97322.13;4158058;28;20637;-83
2023/08/06 09:11:56;;;;;;;1.10;0.50;;;;;;;17.15;100.00;97322.78;4143906;28;20631;-83
2023/08/06 09:14:02;;;;;;;1.83;0.50;;;;;;;17.13;100.00;97325.56;4137553;28;21203;-82
2023/08/06 09:16:10;;;;;;;1.30;0.40;;;;;;;16.98;100.00;97318.50;4139159;28;20657;-83
2023/08/06 09:18:27;;;;;;;1.00;0.40;;;;;;;16.96;100.00;97325.75;4137922;28;20662;-83
2023/08/06 09:20:35;;;;;;;1.00;0.37;;;;;;;16.99;100.00;97320.16;4143642;28;20737;-81
2023/08/06 09:22:40;;;;;;;1.00;0.40;;;;;;;17.02;100.00;97318.00;4125654;28;20635;-83
2023/08/06 09:24:48;;;;;;;1.10;0.30;;;;;;;17.10;100.00;97327.72;4160923;28;20638;-82
2023/08/06 09:26:54;;;;;;;1.60;0.50;;;;;;;17.11;100.00;97337.28;4140148;28;20627;-83
2023/08/06 09:29:03;;;;;;;1.50;0.60;;;;;;;17.09;100.00;97337.47;4154504;28;21272;-82
2023/08/06 09:31:07;;;;;;;1.30;0.60;;;;;;;17.07;100.00;97344.69;4155289;28;21207;-84
2023/08/06 09:33:14;;;;;;;1.10;0.40;;;;;;;17.08;100.00;97340.25;4155644;28;20722;-84
2023/08/06 09:35:20;;;;;;;1.10;0.40;;;;;;;17.17;100.00;97340.09;4158943;28;21239;-83
2023/08/06 09:37:43;;;;;;;1.63;0.30;;;;;;;17.22;100.00;97350.19;4157439;28;20739;-83
2023/08/06 09:39:51;;;;;;;1.00;0.40;;;;;;;17.14;100.00;97350.16;4155048;28;20638;-82
2023/08/06 09:42:07;;;;;;;1.00;0.30;;;;;;;17.09;100.00;97352.41;4152160;28;20626;-83
2023/08/06 09:44:31;;;;;;;1.00;0.30;;;;;;;17.08;100.00;97356.06;4157689;28;20609;-84
2023/08/06 09:46:36;;;;;;;4.70;0.40;;;;;;;16.98;100.00;97368.56;4145871;28;20615;-81
2023/08/06 09:48:59;;;;;;;1.10;0.40;;;;;;;16.90;100.00;97357.16;4142834;28;20638;-84
2023/08/06 09:51:04;;;;;;;1.00;0.30;;;;;;;16.78;100.00;97361.06;4160040;28;20641;-83
2023/08/06 09:53:23;;;;;;;1.10;0.40;;;;;;;16.82;100.00;97354.50;4142152;28;20637;-80